Breedsville, MI (49027)

12:54 PM EST on February 07, 2016 (GMT -0500)
Columbia Twp | | Change Station
CLOSE
Current Station
Personal Weather Station
Location: Grand Junction, MI
Elevation: 665 ft
Nearby Weather Stations

Elev 665 ft 42.41 °N, 86.05 °W | Updated 12 seconds ago

Partly Cloudy
Partly Cloudy
43.9 °F
Feels Like 41 °F
N
4.7
Wind Variable Wind from West
Gusts 5.1 mph

Today
High -- | Low -- °F
--% Chance of Precip.
Yesterday
High -- | Low -- °F
Precip. -- in
Pressure 29.78 in
Visibility 10.0 miles
Clouds Mostly Cloudy 9000 ft
Mostly Cloudy 12000 ft
Windchill 41 °F
Dew Point 32 °F
Humidity 64%
Rainfall 0.02 in
Snow Depth Not available.
7:51 AM 6:05 PM
Waning Crescent, 1% visible
METAR KLWA 071736Z AUTO 24014G21KT 10SM BKN090 BKN120 06/M02 A2978 RMK AO2 T00641019
Pressure 29.78 in
Visibility 10.0 miles
Clouds Mostly Cloudy 9000 ft
Mostly Cloudy 12000 ft
Windchill 41 °F
Dew Point 32 °F
Humidity 64%
Rainfall 0.02 in
Snow Depth Not available.
7:51 AM 6:05 PM
Waning Crescent, 1% visible
METAR KLWA 071736Z AUTO 24014G21KT 10SM BKN090 BKN120 06/M02 A2978 RMK AO2 T00641019

10-Day Weather Forecast

Almanac

Astronomy

Feb. 07, 2016 Rise Set
Actual Time
Civil Twilight
Nautical Twilight
Astronomical Twilight
Moon
Length of Visible Light
Length of Day
Tomorrow will be .
, % of the Moon is Illuminated

Today's Extremes

State Highs State Lows

Community

WunderPhotos

Upload Photos

1,891,248 photos uploaded!

WunderBlog® & News

Nearby

Air Quality

  Air Quality AQ Index Pollutant
Not available.

Snow Depth

Station Depth Elevation

Earthquake Activity

City Distance Mag. Time & Date
Minimum magnitude displayed is 2.5.

Coastal Water Temperatures

Place Temperature

Stations

Nearby Weather Stations

Station Location Temp. Windchill Dew Point Humidity Wind Precip. Elev Updated Type
                   

Watches & Warnings

There are currently no watches in effect.